Share

Winamac, IN (46996)

400 west (KINROCHE3) Elev 748 ft | 41.09 °N, 86.32 °W | Change Station

Current weather conditions updated 3 seconds ago

Clear
Clear
62.2 °F
Feels Like 62.2 °F
N
6.0
Wind Variable Wind from WNW
Gusts 13.0 mph
Sunrise 7:02 AM
Sunset 8:29 PM
Moon Waning Gibbous

Today is forecast to be Cooler than yesterday.

Pressure 30.30 in
Visibility 10.0 miles
Clouds Clear
Dew Point 43 °F
Humidity 50%
Rainfall 0.00 in
Snow Depth Not available.
UV 0.0 out of 16
Pollen 10.50 out of 12
Air Quality Not available.
Flu Activity Sporadic
METAR KRCR 181615Z AUTO 29004KT 10SM CLR 17/05 A3030 RMK AO2

More Conditions Fewer Conditions

Pressure 30.30 in
Visibility 10.0 miles
Clouds Clear
Dew Point 43 °F
Humidity 50%
Rainfall 0.00 in
Snow Depth Not available.
UV 0.0 out of 16
Pollen 10.50 out of 12
Air Quality Not available.
Flu Activity Sporadic
METAR KRCR 181615Z AUTO 29004KT 10SM CLR 17/05 A3030 RMK AO2

More Conditions Fewer Conditions

10-Day Forecast

Almanac

Astronomy

Apr. 18, 2014 Rise Set
Actual Time 7:02 AM EDT 8:29 PM EDT
Civil Twilight 6:33 AM EDT 8:58 PM EDT
Nautical Twilight 5:59 AM EDT 9:33 PM EDT
Astronomical Twilight 5:22 AM EDT 10:09 PM EDT
Moon No Moon Rise 9:23 AM EDT
Length of Visible Light 14h 24m
Length of Day
13h 26m
Tomorrow will be 2m 34s longer.
Waning Gibbous, 87% of the Moon is Illuminated
Today
Waning Gibbous
Apr 22
Last Quarter
Apr 29
New
May 6
First Quarter
May 14
Full

Today's Extremes

State Highs State Lows

Community

  • What's for Lunch?
    What's for Lunch?
  • SUNRISE THROUGH THE TREES.
    SUNRISE THROUGH THE TREES.
  • Dog Wood Blossoms
    Dog Wood Blossoms
  • Morning Light
    Morning Light
  • New Day
    New Day

WunderPhotos

Upload Photos

1,702,407 photos uploaded!

Nearby

Snow Depth

Station Depth Elevation
No new snow has been reported.

Coastal Water Temperatures

Place Temperature
No Stations Reporting

Earthquake Activity

City Distance Mag. Time & Date
No recent earthquake activity has been reported nearby.
Minimum magnitude displayed is 2.5.

Nearby Weather Stations

Station Location Temp. Dew Point Humidity Wind Precip. Elev Updated Type
400 west, Rochester, IN 62.2 °F 43 °F 50% WNW  at  6.0 mph 0.00 in / hr 748 ft 12:38 PM EDT Rapid Fire
Bluewater Drive, Monticello, IN 64.8 °F 64 °F 98% SSW  at  5.8 mph - / hr 682 ft 12:26 PM EDT Normal
4th Street, Rochester, IN 60.9 °F 40 °F 46% WSW  at  0.0 mph 0.00 in / hr 768 ft 12:38 PM EDT Normal

Show More Stations Show Fewer Stations

What do you think?

We're not finished. Please let us know what you like, what you don't like, and what you are still missing.